Time;durP1;ratioP1;P1;durP2;ratioP2;P2;SDS_P1;SDS_P2;PMS_P1;PMS_P2;Temp;Humidity;BMP_temperature;BMP_pressure;BME280_temperature;BME280_humidity;BME280_pressure;Samples;Min_cycle;Max_cycle;Signal;HPM_P1;HPM_P2
2021/12/19 00:10:30;;;;;;;20.13;9.90;;;6.40;1.00;;;;;;5050504;28;20509;-77
2021/12/19 00:13:00;;;;;;;19.97;9.67;;;6.40;1.00;;;;;;5037756;28;20452;-77
2021/12/19 00:15:41;;;;;;;28.17;10.57;;;6.40;1.00;;;;;;5032650;28;20463;-77
2021/12/19 00:18:23;;;;;;;21.27;10.10;;;6.40;1.00;;;;;;5044030;28;20823;-76
2021/12/19 00:20:53;;;;;;;21.00;9.50;;;6.40;1.00;;;;;;5044812;28;20494;-77
2021/12/19 00:23:19;;;;;;;22.87;9.67;;;6.40;1.00;;;;;;5032412;28;20414;-77
2021/12/19 00:25:59;;;;;;;21.20;10.30;;;6.50;1.00;;;;;;5047479;28;20468;-77
2021/12/19 00:28:35;;;;;;;18.63;9.73;;;6.50;1.00;;;;;;5051863;28;20513;-77
2021/12/19 00:31:17;;;;;;;18.50;8.80;;;6.50;1.00;;;;;;5051985;28;20444;-78
2021/12/19 00:33:53;;;;;;;23.33;9.70;;;6.50;1.00;;;;;;5032071;28;20490;-78
2021/12/19 00:36:35;;;;;;;26.03;10.63;;;6.50;1.00;;;;;;5036409;28;20507;-78
2021/12/19 00:39:05;;;;;;;17.73;9.43;;;6.50;1.00;;;;;;5048135;28;20528;-78
2021/12/19 00:41:35;;;;;;;22.60;10.73;;;6.50;1.00;;;;;;5033339;28;20459;-78
2021/12/19 00:44:09;;;;;;;23.27;9.87;;;6.40;1.00;;;;;;5051289;28;20896;-78
2021/12/19 00:46:44;;;;;;;40.93;10.33;;;6.50;1.00;;;;;;5087911;28;20405;-76
2021/12/19 00:49:23;;;;;;;16.30;8.60;;;6.50;1.00;;;;;;5074269;28;20832;-76
2021/12/19 00:51:49;;;;;;;21.50;9.30;;;6.50;1.00;;;;;;5078270;28;20967;-77
2021/12/19 00:54:29;;;;;;;22.70;10.17;;;6.50;1.00;;;;;;5090396;28;20513;-77
2021/12/19 00:57:05;;;;;;;22.83;10.67;;;6.50;1.00;;;;;;5073702;28;20459;-77
2021/12/19 00:59:35;;;;;;;19.17;9.40;;;6.50;1.00;;;;;;5085574;28;20779;-77
2021/12/19 01:02:05;;;;;;;20.27;10.30;;;6.50;1.00;;;;;;5077986;28;20424;-78
2021/12/19 01:04:31;;;;;;;21.53;10.00;;;6.50;1.00;;;;;;5092468;28;20385;-78
2021/12/19 01:07:00;;;;;;;21.50;9.33;;;6.60;1.00;;;;;;5086878;28;20758;-78
2021/12/19 01:09:47;;;;;;;15.07;8.90;;;6.60;1.00;;;;;;5093513;28;20629;-78
2021/12/19 01:12:31;;;;;;;25.07;9.63;;;6.60;1.00;;;;;;5090171;28;20717;-78
2021/12/19 01:14:57;;;;;;;17.53;9.17;;;6.60;1.00;;;;;;5075280;28;20382;-78
2021/12/19 01:17:41;;;;;;;16.83;9.10;;;6.60;1.00;;;;;;5074561;28;20416;-77
2021/12/19 01:20:22;;;;;;;39.17;10.20;;;6.60;1.00;;;;;;5074686;28;20475;-76
2021/12/19 01:23:11;;;;;;;19.70;9.30;;;6.60;1.00;;;;;;5093673;28;20383;-76
2021/12/19 01:25:53;;;;;;;21.20;8.30;;;6.60;1.00;;;;;;5080591;28;20404;-76
2021/12/19 01:28:19;;;;;;;14.90;8.77;;;6.50;1.00;;;;;;5084156;28;20411;-76
2021/12/19 01:30:53;;;;;;;23.53;9.57;;;6.50;1.00;;;;;;5093953;28;20416;-77
2021/12/19 01:33:23;;;;;;;17.43;8.93;;;6.50;1.00;;;;;;5076814;28;20402;-77
2021/12/19 01:35:50;;;;;;;18.00;9.57;;;6.50;1.00;;;;;;5081729;28;20511;-78
2021/12/19 01:38:15;;;;;;;17.60;8.30;;;6.40;1.00;;;;;;5080540;28;20444;-77
2021/12/19 01:44:11;;;;;;;15.30;8.50;;;6.50;1.00;;;;;;5073057;28;20269;-77
2021/12/19 01:46:42;;;;;;;20.57;8.60;;;6.50;1.00;;;;;;5074899;28;20417;-77
2021/12/19 01:49:08;;;;;;;17.33;8.67;;;6.50;1.00;;;;;;5088759;28;20493;-76
2021/12/19 01:51:36;;;;;;;23.20;9.63;;;6.60;1.00;;;;;;5093544;28;20416;-76
2021/12/19 01:54:03;;;;;;;28.17;8.80;;;6.60;1.00;;;;;;5080296;28;20512;-76
2021/12/19 01:56:36;;;;;;;18.30;8.47;;;6.60;1.00;;;;;;5085706;28;20459;-77
2021/12/19 01:59:10;;;;;;;21.83;7.47;;;6.60;1.00;;;;;;5077261;28;20425;-78
2021/12/19 02:01:59;;;;;;;17.97;8.57;;;6.50;1.00;;;;;;5084033;28;20538;-77
2021/12/19 02:04:35;;;;;;;16.03;8.87;;;6.50;1.00;;;;;;5089526;28;20574;-76
2021/12/19 02:07:12;;;;;;;20.37;8.60;;;6.50;1.00;;;;;;5083025;28;20503;-77
2021/12/19 02:09:42;;;;;;;19.20;7.83;;;6.50;1.00;;;;;;5084559;28;20416;-77
2021/12/19 02:12:12;;;;;;;17.00;7.93;;;6.50;1.00;;;;;;5076765;28;20426;-77
2021/12/19 02:14:42;;;;;;;20.80;9.43;;;6.50;1.00;;;;;;5083800;28;20428;-77
2021/12/19 02:17:17;;;;;;;16.63;8.33;;;6.50;1.00;;;;;;5077123;28;20844;-78
2021/12/19 02:20:35;;;;;;;12.93;7.90;;;6.50;1.00;;;;;;5093385;28;20408;-78
2021/12/19 02:23:01;;;;;;;20.30;8.00;;;6.50;1.00;;;;;;5087284;28;20415;-78
2021/12/19 02:26:05;;;;;;;23.80;8.80;;;6.50;1.00;;;;;;5087567;28;20417;-78
2021/12/19 02:28:35;;;;;;;18.93;9.00;;;6.50;1.00;;;;;;5080146;28;20438;-78
2021/12/19 02:31:35;;;;;;;14.67;8.23;;;6.50;1.00;;;;;;5076828;28;20456;-78
2021/12/19 02:34:27;;;;;;;23.00;8.90;;;6.50;1.00;;;;;;5077333;28;20416;-78
2021/12/19 02:37:18;;;;;;;19.20;7.93;;;6.50;1.00;;;;;;5076248;28;20419;-78
2021/12/19 02:48:59;;;;;;;14.83;7.43;;;6.50;1.00;;;;;;5094795;28;20450;-78
2021/12/19 02:51:41;;;;;;;12.50;6.40;;;6.50;1.00;;;;;;5080139;28;20459;-78
2021/12/19 02:54:18;;;;;;;14.87;7.50;;;6.50;1.00;;;;;;5094853;28;20415;-78
2021/12/19 02:56:53;;;;;;;13.73;7.17;;;6.40;1.00;;;;;;5095772;28;20444;-78
2021/12/19 02:59:36;;;;;;;14.30;7.30;;;6.50;1.00;;;;;;5090893;28;20424;-78
2021/12/19 03:02:29;;;;;;;17.43;8.40;;;6.50;1.00;;;;;;5092154;28;20502;-77
2021/12/19 03:05:17;;;;;;;19.27;7.73;;;6.50;1.00;;;;;;5082799;28;20421;-77
2021/12/19 03:07:50;;;;;;;16.53;9.00;;;6.50;1.00;;;;;;5094800;28;20404;-77
2021/12/19 03:13:37;;;;;;;22.77;7.57;;;6.50;1.00;;;;;;5090844;28;20408;-77
2021/12/19 03:18:50;;;;;;;16.13;7.23;;;6.60;1.00;;;;;;5086989;28;20431;-77
2021/12/19 03:21:25;;;;;;;16.50;7.47;;;6.50;1.00;;;;;;5083946;28;20452;-76
2021/12/19 03:23:51;;;;;;;14.77;7.70;;;;;;;;;;5081802;28;20949;-78
2021/12/19 03:26:17;;;;;;;16.90;8.27;;;6.60;1.00;;;;;;5077850;28;20995;-77
2021/12/19 03:28:45;;;;;;;13.23;7.57;;;6.60;1.00;;;;;;5077345;28;20457;-77
2021/12/19 03:31:13;;;;;;;16.53;7.87;;;6.60;1.00;;;;;;5075272;28;20195;-77
2021/12/19 03:33:39;;;;;;;20.97;8.10;;;6.60;1.00;;;;;;5075652;28;20405;-77
2021/12/19 03:36:06;;;;;;;15.27;8.23;;;6.70;1.00;;;;;;5079916;28;20998;-77
2021/12/19 03:38:37;;;;;;;17.03;8.57;;;6.70;1.00;;;;;;5079108;28;20281;-77
2021/12/19 03:41:17;;;;;;;23.60;8.23;;;6.60;1.00;;;;;;5095338;28;20452;-77
2021/12/19 03:44:02;;;;;;;18.70;7.60;;;6.60;1.00;;;;;;5095219;28;20450;-77
2021/12/19 03:46:28;;;;;;;18.00;7.37;;;6.60;1.00;;;;;;5076935;28;20440;-77
2021/12/19 03:48:59;;;;;;;13.83;6.57;;;6.60;1.00;;;;;;5076054;28;20421;-76
2021/12/19 03:51:25;;;;;;;13.63;7.87;;;6.60;1.00;;;;;;5073671;28;20406;-77
2021/12/19 03:53:53;;;;;;;13.03;7.97;;;6.60;1.00;;;;;;5074688;28;21284;-77
2021/12/19 03:59:49;;;;;;;15.30;7.93;;;6.60;1.00;;;;;;5085915;28;20416;-77
2021/12/19 04:02:26;;;;;;;20.67;9.00;;;6.70;1.00;;;;;;5082699;28;20924;-77
2021/12/19 04:04:54;;;;;;;15.63;7.67;;;6.60;1.00;;;;;;5093238;28;20393;-78
2021/12/19 04:07:21;;;;;;;13.30;7.40;;;6.60;1.00;;;;;;5074496;28;20419;-77
2021/12/19 04:09:54;;;;;;;13.17;7.17;;;6.60;1.00;;;;;;5086598;28;20455;-77
2021/12/19 04:12:42;;;;;;;15.73;7.97;;;6.60;1.00;;;;;;5094209;28;20457;-77
2021/12/19 04:15:09;;;;;;;13.27;6.97;;;6.60;1.00;;;;;;5073145;28;20463;-77
2021/12/19 04:17:41;;;;;;;10.47;5.87;;;6.60;1.00;;;;;;5088216;28;20981;-77
2021/12/19 04:20:23;;;;;;;12.77;7.43;;;6.60;1.00;;;;;;5088733;28;20505;-76
2021/12/19 04:22:53;;;;;;;14.67;6.90;;;6.60;1.00;;;;;;5081128;28;20497;-77
2021/12/19 04:25:23;;;;;;;14.47;7.30;;;6.60;1.00;;;;;;5093594;28;20400;-77
2021/12/19 04:27:49;;;;;;;7.83;5.90;;;6.60;1.00;;;;;;5091830;28;20420;-77
2021/12/19 04:30:41;;;;;;;12.03;6.83;;;6.60;1.00;;;;;;5096025;28;20824;-77
2021/12/19 04:33:42;;;;;;;17.50;7.23;;;6.60;1.00;;;;;;5087446;28;20957;-78
2021/12/19 04:36:10;;;;;;;10.73;6.23;;;6.70;1.00;;;;;;5078814;28;20446;-78
2021/12/19 04:59:53;;;;;;;10.30;5.83;;;6.60;1.00;;;;;;5051521;28;20390;-77
2021/12/19 05:14:12;;;;;;;10.07;6.20;;;6.60;1.00;;;;;;5032655;28;20422;-77
2021/12/19 05:16:42;;;;;;;12.03;6.17;;;6.50;1.00;;;;;;5046085;28;20496;-77
2021/12/19 05:21:48;;;;;;;8.63;5.60;;;;;;;;;;5051138;28;20442;-78
2021/12/19 05:27:07;;;;;;;16.13;6.30;;;6.40;1.00;;;;;;5049009;28;20414;-78
2021/12/19 05:29:41;;;;;;;15.10;5.10;;;6.40;1.00;;;;;;5038571;28;20424;-78
2021/12/19 05:32:08;;;;;;;9.13;5.67;;;6.40;1.00;;;;;;5087715;28;20470;-78
2021/12/19 05:34:34;;;;;;;14.03;6.23;;;6.50;1.00;;;;;;5072316;28;20429;-78
2021/12/19 05:45:53;;;;;;;7.77;4.93;;;6.50;1.00;;;;;;5073260;28;20380;-78
2021/12/19 05:48:23;;;;;;;10.17;5.20;;;6.50;1.00;;;;;;5075105;28;20908;-77
2021/12/19 05:50:53;;;;;;;10.43;6.00;;;6.50;1.00;;;;;;5073125;28;20417;-77
2021/12/19 05:53:23;;;;;;;15.00;5.83;;;6.50;1.00;;;;;;5072995;28;20393;-77
2021/12/19 05:55:49;;;;;;;16.30;6.17;;;6.50;1.00;;;;;;5072814;28;20508;-77
2021/12/19 05:58:30;;;;;;;11.97;5.53;;;8.10;1.00;;;;;;5084035;28;20412;-77
2021/12/19 06:00:59;;;;;;;10.80;5.57;;;6.50;1.00;;;;;;5072869;28;20468;-77
2021/12/19 06:03:25;;;;;;;16.63;6.27;;;6.60;1.00;;;;;;5073411;28;20414;-77
2021/12/19 06:05:53;;;;;;;9.13;4.90;;;6.60;1.00;;;;;;5078543;28;20774;-77
2021/12/19 06:08:23;;;;;;;12.77;6.50;;;6.60;1.00;;;;;;5079241;28;20425;-77
2021/12/19 06:10:49;;;;;;;12.23;6.80;;;6.60;1.00;;;;;;5073097;28;20452;-76
2021/12/19 06:13:17;;;;;;;18.80;8.00;;;6.50;1.00;;;;;;5072883;28;20381;-77
2021/12/19 06:15:50;;;;;;;13.80;7.00;;;6.50;1.00;;;;;;5088877;28;20182;-76
2021/12/19 06:18:24;;;;;;;15.17;7.67;;;6.50;1.00;;;;;;5073226;28;20417;-77
2021/12/19 06:21:11;;;;;;;12.83;5.97;;;6.50;1.00;;;;;;5086332;28;20448;-77
2021/12/19 06:23:39;;;;;;;18.60;5.87;;;6.50;1.00;;;;;;5073602;28;20432;-77
2021/12/19 06:26:35;;;;;;;13.23;6.70;;;6.50;1.00;;;;;;5086121;28;20431;-77
2021/12/19 06:29:04;;;;;;;14.50;6.70;;;6.40;1.00;;;;;;5074765;28;20421;-77
2021/12/19 06:31:29;;;;;;;20.47;7.27;;;6.40;1.00;;;;;;5075957;28;20803;-77
2021/12/19 06:34:23;;;;;;;16.40;7.33;;;6.50;1.00;;;;;;5073325;28;20413;-77
2021/12/19 06:36:53;;;;;;;16.73;6.40;;;6.50;1.00;;;;;;5080403;28;20564;-77
2021/12/19 06:39:23;;;;;;;13.23;6.93;;;6.50;1.00;;;;;;5081184;28;20482;-77
2021/12/19 06:41:53;;;;;;;12.50;7.00;;;6.50;1.00;;;;;;5078816;28;20464;-77
2021/12/19 06:44:31;;;;;;;13.57;7.07;;;6.50;1.00;;;;;;5084668;28;20425;-76
2021/12/19 06:47:00;;;;;;;14.40;6.43;;;6.50;1.00;;;;;;5076307;28;21007;-76
2021/12/19 06:49:27;;;;;;;13.50;6.80;;;6.50;1.00;;;;;;5075043;28;20406;-78
2021/12/19 06:52:03;;;;;;;11.57;6.73;;;6.50;1.00;;;;;;5076007;28;20389;-78
2021/12/19 06:54:35;;;;;;;15.83;6.83;;;6.50;1.00;;;;;;5075042;28;20795;-78
2021/12/19 06:57:02;;;;;;;16.73;7.20;;;6.50;1.00;;;;;;5076937;28;20512;-78
2021/12/19 06:59:28;;;;;;;13.43;7.10;;;6.40;1.00;;;;;;5079599;28;20408;-79
2021/12/19 07:01:54;;;;;;;20.30;7.90;;;6.40;1.00;;;;;;5081780;28;20471;-78
2021/12/19 07:04:24;;;;;;;15.63;7.70;;;6.30;1.00;;;;;;5077178;28;20207;-77
2021/12/19 07:06:59;;;;;;;13.13;6.53;;;6.30;1.00;;;;;;5092474;28;20209;-77
2021/12/19 07:09:25;;;;;;;17.07;7.13;;;6.10;1.00;;;;;;5082469;28;20488;-76
2021/12/19 07:11:54;;;;;;;14.80;7.63;;;6.10;1.00;;;;;;5083728;28;20904;-77
2021/12/19 07:14:53;;;;;;;12.93;6.53;;;6.10;1.00;;;;;;5075524;28;20673;-76
2021/12/19 07:17:35;;;;;;;11.90;7.17;;;6.10;1.00;;;;;;5084361;28;20512;-77
2021/12/19 07:20:06;;;;;;;17.10;7.77;;;6.10;1.00;;;;;;5092511;28;20761;-77
2021/12/19 07:22:47;;;;;;;18.37;7.40;;;6.10;1.00;;;;;;5075834;28;20401;-76
2021/12/19 07:25:13;;;;;;;13.43;6.97;;;6.10;1.00;;;;;;5082083;28;20424;-78
2021/12/19 07:27:39;;;;;;;14.37;7.10;;;6.10;1.00;;;;;;5075924;28;20425;-77
2021/12/19 07:30:12;;;;;;;12.57;7.80;;;6.10;1.00;;;;;;5088493;28;20183;-79
2021/12/19 07:32:42;;;;;;;11.97;7.00;;;6.10;1.00;;;;;;5082850;28;20167;-77
2021/12/19 07:35:24;;;;;;;11.07;5.70;;;6.00;1.00;;;;;;5089513;28;20974;-76
2021/12/19 07:37:52;;;;;;;14.67;7.50;;;6.00;1.00;;;;;;5082271;28;20428;-75
2021/12/19 07:40:20;;;;;;;11.27;7.33;;;6.00;1.00;;;;;;5083817;28;20525;-75
2021/12/19 07:42:47;;;;;;;14.17;7.00;;;6.00;1.00;;;;;;5085062;28;20462;-76
2021/12/19 07:45:36;;;;;;;12.17;6.77;;;6.00;1.00;;;;;;5075141;28;20944;-76
2021/12/19 07:48:06;;;;;;;12.53;6.80;;;6.00;1.00;;;;;;5085044;28;20416;-77
2021/12/19 07:50:36;;;;;;;12.17;6.87;;;6.00;1.00;;;;;;5075443;28;20516;-79
2021/12/19 07:53:24;;;;;;;13.43;7.13;;;6.00;1.00;;;;;;5074966;28;20417;-78
2021/12/19 07:56:00;;;;;;;9.83;6.17;;;6.00;1.00;;;;;;5077280;28;20436;-78
2021/12/19 07:58:26;;;;;;;15.43;7.50;;;6.00;1.00;;;;;;5087777;28;20435;-78
2021/12/19 08:00:53;;;;;;;13.37;7.37;;;6.00;1.00;;;;;;5089025;28;20567;-78
2021/12/19 08:03:29;;;;;;;8.47;5.63;;;6.00;1.00;;;;;;5094838;28;20863;-78
2021/12/19 08:09:58;;;;;;;14.60;7.63;;;6.10;1.00;;;;;;5080410;28;20424;-78
2021/12/19 08:12:29;;;;;;;11.23;6.00;;;6.20;1.00;;;;;;5083481;28;20508;-78
2021/12/19 08:15:12;;;;;;;16.37;7.63;;;6.20;1.00;;;;;;5077359;28;20566;-79
2021/12/19 08:18:11;;;;;;;12.20;6.60;;;6.40;1.00;;;;;;5086979;28;20428;-78
2021/12/19 08:20:37;;;;;;;10.00;6.23;;;6.40;1.00;;;;;;5075869;28;20457;-77
2021/12/19 08:23:03;;;;;;;16.83;7.70;;;6.50;1.00;;;;;;5074537;28;20393;-77
2021/12/19 08:25:41;;;;;;;16.73;8.00;;;6.60;1.00;;;;;;5088140;28;20178;-76
2021/12/19 08:28:11;;;;;;;12.77;7.57;;;6.60;1.00;;;;;;5095475;28;20860;-77
2021/12/19 08:30:47;;;;;;;10.27;6.43;;;6.60;1.00;;;;;;5081396;28;20430;-82
2021/12/19 08:33:13;;;;;;;11.87;6.63;;;6.60;1.00;;;;;;5074061;28;20915;-77
2021/12/19 08:35:42;;;;;;;11.67;6.20;;;6.70;1.00;;;;;;5091487;28;20481;-78
2021/12/19 08:38:17;;;;;;;15.00;8.00;;;6.70;1.00;;;;;;5077525;28;20218;-78
2021/12/19 08:40:49;;;;;;;19.07;8.50;;;6.70;1.00;;;;;;5074419;28;20815;-78
2021/12/19 08:43:24;;;;;;;18.00;7.83;;;6.80;1.00;;;;;;5072520;28;20474;-78
2021/12/19 08:45:49;;;;;;;19.33;7.63;;;6.90;1.00;;;;;;5088378;28;20404;-78
2021/12/19 08:48:35;;;;;;;12.93;7.40;;;6.90;1.00;;;;;;5085279;28;21108;-79
2021/12/19 08:51:01;;;;;;;10.73;6.70;;;7.00;1.00;;;;;;5075202;28;20179;-77
2021/12/19 08:53:27;;;;;;;15.50;8.07;;;7.00;1.00;;;;;;5083904;28;20409;-78
2021/12/19 08:55:53;;;;;;;14.03;7.40;;;7.00;1.00;;;;;;5085359;28;20493;-77
2021/12/19 08:58:19;;;;;;;10.63;7.03;;;7.00;1.00;;;;;;5076563;28;20183;-77
2021/12/19 09:00:45;;;;;;;12.93;6.93;;;7.00;1.00;;;;;;5073553;28;20460;-77
2021/12/19 09:03:11;;;;;;;25.07;9.10;;;6.90;1.00;;;;;;5074086;28;20202;-77
2021/12/19 09:05:37;;;;;;;14.00;7.53;;;6.90;1.00;;;;;;5072804;28;20417;-77
2021/12/19 09:08:06;;;;;;;17.00;7.37;;;7.00;1.00;;;;;;5083230;28;20433;-77
2021/12/19 09:10:43;;;;;;;14.23;8.07;;;7.10;1.00;;;;;;5079378;28;20209;-77
2021/12/19 09:13:09;;;;;;;12.67;7.60;;;7.10;1.00;;;;;;5072508;28;20511;-77
2021/12/19 09:15:34;;;;;;;12.47;6.90;;;7.20;1.00;;;;;;5073600;28;20430;-77
2021/12/19 09:18:00;;;;;;;17.97;7.47;;;7.20;1.00;;;;;;5074714;28;20412;-77
2021/12/19 09:20:26;;;;;;;17.03;8.57;;;7.30;1.00;;;;;;5094116;28;20186;-77
2021/12/19 09:22:53;;;;;;;13.80;7.07;;;7.30;1.00;;;;;;5083682;28;20937;-76
2021/12/19 09:25:23;;;;;;;17.47;8.73;;;7.40;1.00;;;;;;5077659;28;20276;-76
2021/12/19 09:27:49;;;;;;;15.73;7.47;;;7.60;1.00;;;;;;5078117;28;20939;-76
2021/12/19 09:30:16;;;;;;;11.63;7.67;;;7.70;1.00;;;;;;5073811;28;20465;-77
2021/12/19 09:32:41;;;;;;;14.00;7.50;;;7.70;1.00;;;;;;5078125;28;20546;-77
2021/12/19 09:35:14;;;;;;;15.03;7.93;;;7.80;1.00;;;;;;5073486;28;20435;-77
2021/12/19 09:37:54;;;;;;;18.90;7.07;;;7.90;1.00;;;;;;5078709;28;20190;-77
2021/12/19 09:40:43;;;;;;;13.97;7.23;;;7.90;1.00;;;;;;5084550;28;20460;-76
2021/12/19 09:43:41;;;;;;;19.00;8.40;;;8.10;1.00;;;;;;5074325;28;20420;-76
2021/12/19 09:46:19;;;;;;;18.20;7.40;;;8.20;1.00;;;;;;5076275;28;20912;-77
2021/12/19 09:48:54;;;;;;;12.70;7.60;;;8.30;1.00;;;;;;5084773;28;20404;-77
2021/12/19 09:51:23;;;;;;;14.87;7.53;;;8.20;1.00;;;;;;5079130;28;20922;-77
2021/12/19 09:53:49;;;;;;;15.93;7.87;;;8.30;1.00;;;;;;5072928;28;20793;-77
2021/12/19 09:56:33;;;;;;;19.67;7.53;;;8.30;1.00;;;;;;5090457;28;20420;-76
2021/12/19 09:59:06;;;;;;;14.10;6.93;;;8.50;1.00;;;;;;5090772;28;20166;-77
2021/12/19 10:01:36;;;;;;;16.37;7.57;;;8.50;1.00;;;;;;5073230;28;20453;-76
2021/12/19 10:04:02;;;;;;;13.77;6.80;;;8.60;1.00;;;;;;5075766;28;20547;-76
2021/12/19 10:06:35;;;;;;;10.97;6.63;;;8.70;1.00;;;;;;5073507;28;20970;-77
2021/12/19 10:09:18;;;;;;;12.50;7.17;;;8.70;1.00;;;;;;5074022;28;21018;-76
2021/12/19 10:14:41;;;;;;;14.97;7.37;;;8.50;1.00;;;;;;5091785;28;20451;-76
2021/12/19 10:17:19;;;;;;;13.37;7.87;;;8.40;1.00;;;;;;5078930;28;20504;-76
2021/12/19 10:19:53;;;;;;;17.27;8.53;;;8.30;1.00;;;;;;5089130;28;20929;-76
2021/12/19 10:22:32;;;;;;;14.13;7.10;;;8.30;1.00;;;;;;5076167;28;20460;-78
2021/12/19 10:25:20;;;;;;;17.93;8.60;;;8.30;1.00;;;;;;5077651;28;20903;-78
2021/12/19 10:27:55;;;;;;;17.67;8.50;;;8.10;1.00;;;;;;5101841;28;20403;-78
2021/12/19 10:30:37;;;;;;;20.40;8.07;;;8.10;1.00;;;;;;5083703;28;21156;-78
2021/12/19 10:33:26;;;;;;;13.87;8.43;;;8.00;1.00;;;;;;5080465;28;20428;-78
2021/12/19 10:35:54;;;;;;;13.43;7.50;;;8.00;1.00;;;;;;5087354;28;20424;-77
2021/12/19 10:38:36;;;;;;;16.07;8.93;;;8.00;1.00;;;;;;5078140;28;20420;-78
2021/12/19 10:41:11;;;;;;;15.90;7.27;;;7.90;1.00;;;;;;5077468;28;20547;-78
2021/12/19 10:45:29;;;;;;;22.17;8.33;;;8.00;1.00;;;;;;5087444;28;20822;-78
2021/12/19 10:47:26;;;;;;;12.90;6.90;;;8.00;1.00;;;;;;5077134;28;20421;-78
2021/12/19 10:49:54;;;;;;;14.37;6.80;;;8.00;1.00;;;;;;5072814;28;20428;-79
2021/12/19 10:52:47;;;;;;;14.00;7.67;;;8.00;1.00;;;;;;5074399;28;20507;-78
2021/12/19 10:55:18;;;;;;;13.17;6.63;;;8.10;1.00;;;;;;5070634;28;20433;-78
2021/12/19 10:58:24;;;;;;;14.60;8.10;;;8.20;1.00;;;;;;5055350;28;20819;-78
2021/12/19 11:01:06;;;;;;;17.03;7.20;;;8.30;1.00;;;;;;5074093;28;20451;-78
2021/12/19 11:03:42;;;;;;;12.47;7.20;;;8.30;1.00;;;;;;5059065;28;20796;-78
2021/12/19 11:06:33;;;;;;;14.97;6.73;;;8.50;1.00;;;;;;5068271;28;20433;-78
2021/12/19 11:09:01;;;;;;;16.27;7.47;;;8.50;1.00;;;;;;5053350;28;20421;-78
2021/12/19 11:11:43;;;;;;;15.93;7.40;;;8.50;1.00;;;;;;5057082;28;21013;-78
2021/12/19 11:14:12;;;;;;;15.50;8.00;;;8.60;1.00;;;;;;5068338;28;20460;-78
2021/12/19 11:16:38;;;;;;;11.67;5.97;;;8.70;1.00;;;;;;5059733;28;20427;-78
2021/12/19 11:19:06;;;;;;;15.33;7.90;;;8.90;1.00;;;;;;5054998;28;20448;-78
2021/12/19 11:21:34;;;;;;;11.67;7.43;;;8.80;1.00;;;;;;5053106;28;20466;-78
2021/12/19 11:24:07;;;;;;;13.53;5.73;;;10.60;1.00;;;;;;5079165;28;20424;-78
2021/12/19 11:26:35;;;;;;;16.63;7.23;;;9.00;1.00;;;;;;5076681;28;20518;-78
2021/12/19 11:29:01;;;;;;;13.63;6.40;;;9.00;1.00;;;;;;5078871;28;20425;-79
2021/12/19 11:31:30;;;;;;;11.57;5.67;;;9.00;1.00;;;;;;5074703;28;20434;-79
2021/12/19 11:34:14;;;;;;;15.40;7.63;;;8.90;1.00;;;;;;5074800;28;20931;-78
2021/12/19 11:36:44;;;;;;;14.93;7.23;;;8.90;1.00;;;;;;5075001;28;20815;-74
2021/12/19 11:39:11;;;;;;;10.70;6.80;;;9.30;1.00;;;;;;5082383;28;20953;-76
2021/12/19 11:41:39;;;;;;;10.77;6.73;;;8.80;1.00;;;;;;5077129;28;20602;-76
2021/12/19 11:44:07;;;;;;;16.47;6.70;;;8.80;1.00;;;;;;5074605;28;20971;-76
2021/12/19 11:46:54;;;;;;;13.23;6.47;;;8.80;1.00;;;;;;5074194;28;20419;-76
2021/12/19 11:49:24;;;;;;;8.43;4.97;;;8.70;1.00;;;;;;5074227;28;20417;-76
2021/12/19 11:52:22;;;;;;;13.43;6.73;;;8.50;1.00;;;;;;5080242;28;20508;-76
2021/12/19 11:55:13;;;;;;;10.03;6.27;;;8.40;1.00;;;;;;5074147;28;20449;-76
2021/12/19 11:57:43;;;;;;;15.93;6.87;;;8.30;1.00;;;;;;5084681;28;20474;-76
2021/12/19 12:00:35;;;;;;;7.13;4.30;;;8.30;1.00;;;;;;5073835;28;20429;-76
2021/12/19 12:03:18;;;;;;;11.37;7.20;;;8.20;1.00;;;;;;5073858;28;20965;-76
2021/12/19 12:05:46;;;;;;;12.77;5.80;;;8.10;1.00;;;;;;5074102;28;20424;-76
2021/12/19 12:08:13;;;;;;;12.90;6.37;;;8.00;1.00;;;;;;5086752;28;20421;-77
2021/12/19 12:10:55;;;;;;;15.50;7.40;;;8.00;1.00;;;;;;5086419;28;20436;-77
2021/12/19 12:13:30;;;;;;;10.07;5.43;;;7.90;1.00;;;;;;5081654;28;20401;-76
2021/12/19 12:16:20;;;;;;;14.90;7.17;;;7.90;1.00;;;;;;5074254;28;20511;-76
2021/12/19 12:18:55;;;;;;;17.67;6.10;;;7.80;1.00;;;;;;5072984;28;20460;-76
2021/12/19 12:23:51;;;;;;;11.10;6.30;;;7.80;1.00;;;;;;5074461;28;20421;-76
2021/12/19 12:26:27;;;;;;;13.47;6.00;;;7.80;1.00;;;;;;5074141;28;20429;-76
2021/12/19 12:28:54;;;;;;;10.07;5.00;;;7.80;1.00;;;;;;5072552;28;20823;-76
2021/12/19 12:31:20;;;;;;;19.27;7.17;;;7.80;1.00;;;;;;5073820;28;20417;-76
2021/12/19 12:33:46;;;;;;;9.03;5.80;;;7.80;1.00;;;;;;5073380;28;20459;-76
2021/12/19 12:36:18;;;;;;;14.13;6.20;;;7.80;1.00;;;;;;5073667;28;20445;-76
2021/12/19 12:38:46;;;;;;;12.10;5.90;;;7.80;1.00;;;;;;5073090;28;20413;-76
2021/12/19 12:41:27;;;;;;;18.60;7.33;;;;;;;;;;5073600;28;20457;-76
2021/12/19 12:43:53;;;;;;;9.90;6.00;;;;;;;;;;5073348;28;20808;-77
2021/12/19 12:46:21;;;;;;;13.10;6.50;;;7.80;1.00;;;;;;5073522;28;20942;-77
2021/12/19 12:49:07;;;;;;;12.60;6.43;;;7.90;1.00;;;;;;5073170;28;20578;-77
2021/12/19 12:51:46;;;;;;;13.30;6.23;;;7.90;1.00;;;;;;5083989;28;20507;-76
2021/12/19 12:54:35;;;;;;;13.03;6.40;;;8.10;1.00;;;;;;5079046;28;20420;-78
2021/12/19 12:57:04;;;;;;;15.20;6.60;;;8.20;1.00;;;;;;5080992;28;20435;-79
2021/12/19 12:59:36;;;;;;;11.80;6.13;;;8.20;1.00;;;;;;5081627;28;20773;-79
2021/12/19 13:02:11;;;;;;;11.73;6.97;;;8.30;1.00;;;;;;5076365;28;20457;-78
2021/12/19 13:04:48;;;;;;;12.70;6.50;;;8.10;1.00;;;;;;5074092;28;20443;-79
2021/12/19 13:07:15;;;;;;;9.20;5.77;;;8.10;1.00;;;;;;5083250;28;20432;-77
2021/12/19 13:09:49;;;;;;;14.67;6.77;;;8.10;1.00;;;;;;5084083;28;20518;-78
2021/12/19 13:12:25;;;;;;;9.27;6.10;;;8.10;1.00;;;;;;5086526;28;20455;-79
2021/12/19 13:14:57;;;;;;;15.07;6.80;;;8.00;1.00;;;;;;5077378;28;20523;-77
2021/12/19 13:17:27;;;;;;;14.97;6.77;;;8.00;1.00;;;;;;5073352;28;20532;-78
2021/12/19 13:19:57;;;;;;;10.27;6.47;;;8.00;1.00;;;;;;5073160;28;20433;-78
2021/12/19 13:22:43;;;;;;;13.80;7.33;;;7.90;1.00;;;;;;5081655;28;20510;-77
2021/12/19 13:25:12;;;;;;;10.50;6.00;;;7.90;1.00;;;;;;5080355;28;20429;-77
2021/12/19 13:28:00;;;;;;;22.83;7.00;;;7.80;1.00;;;;;;5077111;28;20435;-77
2021/12/19 13:30:31;;;;;;;5.07;3.30;;;7.80;1.00;;;;;;5072114;28;20928;-78
2021/12/19 13:33:06;;;;;;;11.93;7.57;;;7.80;1.00;;;;;;5075710;28;20447;-77
2021/12/19 13:35:35;;;;;;;10.50;5.43;;;7.70;1.00;;;;;;5078388;28;20424;-77
2021/12/19 13:38:10;;;;;;;17.47;8.10;;;7.60;1.00;;;;;;5073180;28;20417;-77
2021/12/19 13:40:52;;;;;;;13.00;7.13;;;7.60;1.00;;;;;;5082678;28;20562;-77
2021/12/19 13:43:23;;;;;;;14.10;7.20;;;7.60;1.00;;;;;;5078733;28;20421;-77
2021/12/19 13:46:10;;;;;;;14.43;7.43;;;7.40;1.00;;;;;;5071147;28;20475;-79
2021/12/19 13:48:50;;;;;;;17.90;8.03;;;7.40;1.00;;;;;;5075062;28;20424;-82
2021/12/19 13:51:27;;;;;;;12.57;6.73;;;7.40;1.00;;;;;;5084587;28;20434;-77
2021/12/19 13:53:57;;;;;;;15.77;8.10;;;7.40;1.00;;;;;;5087131;28;20527;-79
2021/12/19 13:56:29;;;;;;;16.83;7.33;;;7.40;1.00;;;;;;5087431;28;20431;-78
2021/12/19 13:58:57;;;;;;;14.90;7.53;;;7.40;1.00;;;;;;5080226;28;20432;-78
2021/12/19 14:01:29;;;;;;;19.97;8.87;;;;;;;;;;5080247;28;20852;-78
2021/12/19 14:03:56;;;;;;;17.53;8.97;;;;;;;;;;5078979;28;20445;-78
2021/12/19 14:06:32;;;;;;;17.40;8.80;;;7.30;1.00;;;;;;5076830;28;20430;-78
2021/12/19 14:08:59;;;;;;;12.43;7.07;;;7.20;1.00;;;;;;5076951;28;20774;-76
2021/12/19 14:11:29;;;;;;;12.90;7.27;;;7.30;1.00;;;;;;5078275;28;20838;-76
2021/12/19 14:14:01;;;;;;;15.27;7.97;;;7.30;1.00;;;;;;5093299;28;20432;-76
2021/12/19 14:16:46;;;;;;;11.57;7.40;;;7.40;1.00;;;;;;5086328;28;20425;-76
2021/12/19 14:19:27;;;;;;;12.37;7.23;;;7.30;1.00;;;;;;5088657;28;20431;-76
2021/12/19 14:22:16;;;;;;;20.40;7.47;;;7.40;1.00;;;;;;5092557;28;20462;-76
2021/12/19 14:24:53;;;;;;;11.30;6.90;;;7.60;1.00;;;;;;5080212;28;20444;-76
2021/12/19 14:27:29;;;;;;;9.83;6.57;;;7.70;1.00;;;;;;5082195;28;20465;-76
2021/12/19 14:29:55;;;;;;;11.00;6.73;;;7.70;1.00;;;;;;5081213;28;20426;-76
2021/12/19 14:32:22;;;;;;;11.53;6.67;;;7.70;1.00;;;;;;5080514;28;20516;-76
2021/12/19 14:35:01;;;;;;;7.80;5.60;;;7.70;1.00;;;;;;5078584;28;20217;-76
2021/12/19 14:37:30;;;;;;;14.23;5.57;;;7.70;1.00;;;;;;5079191;28;20424;-76
2021/12/19 14:40:18;;;;;;;8.30;4.90;;;7.70;1.00;;;;;;5082592;28;20518;-78
2021/12/19 14:42:48;;;;;;;8.37;4.67;;;7.70;1.00;;;;;;5078894;28;20964;-79
2021/12/19 14:45:26;;;;;;;7.27;4.70;;;7.60;1.00;;;;;;5083518;28;20404;-79
2021/12/19 14:48:15;;;;;;;5.80;4.30;;;7.60;1.00;;;;;;5079182;28;20468;-79
2021/12/19 14:51:02;;;;;;;7.33;4.53;;;7.60;1.00;;;;;;5076855;28;20425;-79
2021/12/19 14:53:34;;;;;;;7.30;5.47;;;7.60;1.00;;;;;;5079533;28;20478;-76
2021/12/19 14:56:04;;;;;;;10.10;5.07;;;7.60;1.00;;;;;;5086702;28;20427;-76
2021/12/19 14:58:32;;;;;;;8.67;4.90;;;7.70;1.00;;;;;;5088046;28;20424;-76
2021/12/19 15:01:07;;;;;;;4.77;3.90;;;7.70;1.00;;;;;;5082900;28;20465;-76
2021/12/19 15:03:36;;;;;;;4.83;4.10;;;7.70;1.00;;;;;;5085991;28;20425;-76
2021/12/19 15:06:04;;;;;;;7.37;4.70;;;7.70;1.00;;;;;;5080495;28;20420;-76